Time;durP1;ratioP1;P1;durP2;ratioP2;P2;SDS_P1;SDS_P2;PMS_P1;PMS_P2;Temp;Humidity;BMP_temperature;BMP_pressure;BME280_temperature;BME280_humidity;BME280_pressure;Samples;Min_cycle;Max_cycle;Signal;HPM_P1;HPM_P2
2024/01/05 00:00:06;;;;;;;0.40;0.40;;;7.20;99.90;;;;;;5027575;28;20200;-84
2024/01/05 00:02:32;;;;;;;0.40;0.40;;;7.20;99.90;;;;;;5027555;28;20690;-85
2024/01/05 00:05:00;;;;;;;7.50;1.20;;;7.20;99.90;;;;;;5024310;28;20216;-83
2024/01/05 00:07:28;;;;;;;4.05;3.65;;;7.20;99.90;;;;;;5024319;28;20203;-84
2024/01/05 00:09:55;;;;;;;0.40;0.40;;;7.20;99.90;;;;;;5031953;28;20204;-83
2024/01/05 00:12:22;;;;;;;0.40;0.40;;;7.20;99.90;;;;;;5024238;28;20308;-84
2024/01/05 00:14:49;;;;;;;0.40;0.40;;;7.20;99.90;;;;;;5017079;28;20228;-83
2024/01/05 00:17:15;;;;;;;7.22;0.50;;;7.30;99.90;;;;;;5027679;28;20191;-83
2024/01/05 00:19:42;;;;;;;2.92;1.85;;;7.20;99.90;;;;;;5026055;28;20687;-85
2024/01/05 00:22:10;;;;;;;0.60;0.60;;;7.20;99.90;;;;;;5028476;28;20203;-84
2024/01/05 00:24:37;;;;;;;0.40;0.30;;;7.30;99.90;;;;;;5027571;28;20229;-83
2024/01/05 00:27:05;;;;;;;0.40;0.40;;;7.30;99.90;;;;;;5011208;28;20817;-84
2024/01/05 00:29:31;;;;;;;0.40;0.30;;;7.30;99.90;;;;;;5027352;28;20204;-84
2024/01/05 00:31:58;;;;;;;0.40;0.30;;;7.30;99.90;;;;;;5027128;28;20230;-83
2024/01/05 00:34:25;;;;;;;0.85;0.60;;;7.30;99.90;;;;;;5027075;28;20227;-84
2024/01/05 00:36:51;;;;;;;1.35;0.75;;;7.30;99.90;;;;;;5026101;28;20726;-84
2024/01/05 00:39:19;;;;;;;0.70;0.70;;;7.30;99.90;;;;;;5026965;28;20199;-84
2024/01/05 00:41:47;;;;;;;7.20;3.25;;;7.30;99.90;;;;;;5026470;28;20203;-84
2024/01/05 00:44:14;;;;;;;0.40;0.40;;;7.40;99.90;;;;;;5027089;28;20231;-84
2024/01/05 00:46:41;;;;;;;0.52;0.43;;;7.40;99.90;;;;;;5027397;28;20209;-81
2024/01/05 00:49:07;;;;;;;7.32;2.15;;;7.40;99.90;;;;;;5026689;28;20675;-84
2024/01/05 00:51:34;;;;;;;0.50;0.50;;;7.40;99.90;;;;;;5027884;28;20213;-84
2024/01/05 00:54:01;;;;;;;1.83;0.60;;;7.40;99.90;;;;;;5031532;28;20225;-84
2024/01/05 00:56:29;;;;;;;0.40;0.40;;;7.40;99.90;;;;;;5029861;28;20732;-83
2024/01/05 00:58:56;;;;;;;0.40;0.40;;;7.40;99.90;;;;;;5032644;28;20196;-84
2024/01/05 01:01:22;;;;;;;0.52;0.50;;;7.50;99.90;;;;;;5015087;28;20224;-85
2024/01/05 01:03:49;;;;;;;0.40;0.40;;;7.50;99.90;;;;;;5024357;28;20592;-84
2024/01/05 01:06:16;;;;;;;1.30;1.20;;;7.50;99.90;;;;;;5026596;28;20203;-83
2024/01/05 01:08:43;;;;;;;0.40;0.40;;;7.50;99.90;;;;;;5017781;28;20201;-80
2024/01/05 01:11:14;;;;;;;0.50;0.40;;;7.50;99.90;;;;;;5022928;28;20228;-82
2024/01/05 01:13:42;;;;;;;1.35;0.40;;;7.50;99.90;;;;;;5022429;28;20583;-84
2024/01/05 01:16:09;;;;;;;9.10;0.98;;;7.50;99.90;;;;;;5015754;28;20211;-84
2024/01/05 01:18:36;;;;;;;2.67;1.23;;;7.60;99.90;;;;;;5023315;28;20201;-83
2024/01/05 01:21:03;;;;;;;0.40;0.30;;;7.60;99.90;;;;;;5023477;28;20207;-84
2024/01/05 01:23:30;;;;;;;0.40;0.38;;;7.60;99.90;;;;;;5027200;28;20227;-84
2024/01/05 01:25:56;;;;;;;0.40;0.35;;;7.60;99.90;;;;;;5017878;28;20216;-83
2024/01/05 01:28:23;;;;;;;5.65;1.98;;;7.60;99.90;;;;;;5026316;28;20835;-85
2024/01/05 01:30:51;;;;;;;0.40;0.40;;;7.70;99.90;;;;;;5017973;28;20196;-84
2024/01/05 01:33:18;;;;;;;0.45;0.40;;;7.70;99.90;;;;;;5026454;28;20203;-84
2024/01/05 01:35:44;;;;;;;1.40;0.60;;;7.70;99.90;;;;;;5025694;28;20720;-80
2024/01/05 01:38:11;;;;;;;0.93;0.82;;;7.80;99.90;;;;;;5022720;28;20698;-83
2024/01/05 01:40:38;;;;;;;0.95;0.50;;;7.80;99.90;;;;;;5022615;28;20209;-85
2024/01/05 01:43:05;;;;;;;0.50;0.50;;;7.80;99.90;;;;;;5022635;28;20204;-84
2024/01/05 01:45:31;;;;;;;0.40;0.40;;;7.80;99.90;;;;;;5022920;28;20224;-85
2024/01/05 01:48:00;;;;;;;0.40;0.40;;;7.80;99.90;;;;;;5023632;28;20204;-81
2024/01/05 01:50:26;;;;;;;0.40;0.40;;;7.90;99.90;;;;;;5034728;28;20210;-84
2024/01/05 01:52:53;;;;;;;0.40;0.40;;;7.90;99.90;;;;;;5025083;28;20219;-83
2024/01/05 01:55:20;;;;;;;3.00;0.63;;;7.90;99.90;;;;;;5027328;28;20227;-84
2024/01/05 01:57:47;;;;;;;2.58;1.77;;;7.80;99.90;;;;;;5025159;28;20200;-81
2024/01/05 02:00:14;;;;;;;0.70;0.70;;;7.80;99.90;;;;;;5022219;28;20557;-84
2024/01/05 02:02:41;;;;;;;4.25;1.20;;;7.80;99.90;;;;;;5013974;28;20830;-84
2024/01/05 02:05:09;;;;;;;0.40;0.40;;;7.80;99.90;;;;;;5022252;28;20223;-83
2024/01/05 02:07:37;;;;;;;0.40;0.40;;;7.80;99.90;;;;;;5022247;28;20196;-84
2024/01/05 02:10:04;;;;;;;0.60;0.60;;;7.70;99.90;;;;;;5029943;28;20202;-84
2024/01/05 02:12:31;;;;;;;0.40;0.40;;;7.70;99.90;;;;;;5022292;28;20212;-83
2024/01/05 02:14:58;;;;;;;0.40;0.40;;;7.70;99.90;;;;;;5023422;28;20217;-85
2024/01/05 02:17:28;;;;;;;5.03;1.38;;;7.80;99.90;;;;;;5024934;28;20196;-83
2024/01/05 02:19:55;;;;;;;1.73;0.88;;;7.80;99.90;;;;;;5024739;28;20611;-83
2024/01/05 02:22:27;;;;;;;0.98;0.50;;;7.80;99.90;;;;;;5025242;28;20192;-85
2024/01/05 02:24:56;;;;;;;1.98;1.10;;;7.80;99.90;;;;;;5024336;28;20216;-82
2024/01/05 02:27:23;;;;;;;0.40;0.40;;;7.70;99.90;;;;;;5021844;28;20197;-85
2024/01/05 02:29:49;;;;;;;0.40;0.40;;;7.70;99.90;;;;;;5021427;28;20688;-79
2024/01/05 02:32:17;;;;;;;0.40;0.30;;;7.70;99.90;;;;;;5021367;28;20410;-84
2024/01/05 02:34:44;;;;;;;0.40;0.40;;;7.60;99.90;;;;;;5021465;28;20566;-85
2024/01/05 02:37:11;;;;;;;0.40;0.40;;;7.60;99.90;;;;;;5029576;28;20563;-85
2024/01/05 02:39:38;;;;;;;0.50;0.50;;;7.50;99.90;;;;;;5019973;28;20199;-84
2024/01/05 02:42:06;;;;;;;0.70;0.70;;;7.50;99.90;;;;;;5016509;28;20189;-83
2024/01/05 02:44:33;;;;;;;17.95;6.93;;;7.40;99.90;;;;;;5019126;28;20235;-85
2024/01/05 02:47:00;;;;;;;0.40;0.30;;;7.40;99.90;;;;;;5030883;28;20210;-84
2024/01/05 02:49:26;;;;;;;0.40;0.40;;;7.40;99.90;;;;;;5022276;28;20197;-84
2024/01/05 02:51:53;;;;;;;0.40;0.40;;;7.30;99.90;;;;;;5023639;28;20576;-84
2024/01/05 02:54:20;;;;;;;0.88;0.57;;;7.30;99.90;;;;;;5022629;28;20220;-86
2024/01/05 02:56:46;;;;;;;0.40;0.40;;;7.20;99.90;;;;;;5022877;28;20196;-85
2024/01/05 02:59:15;;;;;;;0.40;0.30;;;7.20;99.90;;;;;;5025100;28;20575;-83
2024/01/05 03:01:42;;;;;;;0.40;0.40;;;7.30;99.90;;;;;;5025570;28;20249;-85
2024/01/05 03:04:10;;;;;;;0.40;0.40;;;7.30;99.90;;;;;;5023501;28;20224;-85
2024/01/05 03:06:37;;;;;;;0.80;0.80;;;7.20;99.90;;;;;;5022230;28;20204;-80
2024/01/05 03:09:05;;;;;;;0.50;0.43;;;7.20;99.90;;;;;;5022216;28;20740;-83
2024/01/05 03:11:32;;;;;;;0.40;0.40;;;7.20;99.90;;;;;;5022663;28;20312;-84
2024/01/05 03:13:57;;;;;;;1.58;1.35;;;7.20;99.90;;;;;;5022436;28;20220;-86
2024/01/05 03:16:26;;;;;;;0.40;0.40;;;7.20;99.90;;;;;;5022548;28;20284;-84
2024/01/05 03:18:52;;;;;;;0.40;0.40;;;7.20;99.90;;;;;;5022576;28;20199;-85
2024/01/05 03:21:19;;;;;;;4.72;1.95;;;7.20;99.90;;;;;;5017524;28;20199;-83
2024/01/05 03:23:46;;;;;;;0.40;0.40;;;7.20;99.90;;;;;;5026444;28;20675;-85
2024/01/05 03:26:12;;;;;;;0.40;0.40;;;7.10;99.90;;;;;;5024636;28;20207;-85
2024/01/05 03:28:39;;;;;;;2.80;2.35;;;7.10;99.90;;;;;;5025027;28;20196;-86
2024/01/05 03:31:11;;;;;;;0.65;0.65;;;7.10;99.90;;;;;;5025563;28;20571;-84
2024/01/05 03:33:39;;;;;;;0.50;0.40;;;7.10;99.90;;;;;;5025288;28;20223;-85
2024/01/05 03:36:06;;;;;;;0.40;0.40;;;7.10;99.90;;;;;;5022909;28;20206;-85
2024/01/05 03:38:33;;;;;;;0.60;0.57;;;7.10;99.90;;;;;;5021417;28;20227;-84
2024/01/05 03:41:00;;;;;;;1.42;1.15;;;7.00;99.90;;;;;;5029103;28;20655;-84
2024/01/05 03:43:27;;;;;;;0.60;0.50;;;7.10;99.90;;;;;;5017297;28;20196;-84
2024/01/05 03:45:53;;;;;;;0.73;0.73;;;7.10;99.90;;;;;;5024859;28;20219;-83
2024/01/05 03:48:20;;;;;;;0.40;0.40;;;7.20;99.90;;;;;;5039294;28;20190;-88
2024/01/05 03:50:48;;;;;;;1.85;1.35;;;7.20;99.90;;;;;;5011403;28;20665;-85
2024/01/05 03:53:15;;;;;;;0.40;0.40;;;7.10;99.90;;;;;;5024799;28;20212;-84
2024/01/05 03:55:42;;;;;;;0.40;0.40;;;7.20;99.90;;;;;;5018454;28;20224;-85
2024/01/05 03:58:09;;;;;;;0.40;0.40;;;7.20;99.90;;;;;;5020318;28;20266;-87
2024/01/05 04:00:35;;;;;;;0.50;0.50;;;7.20;99.90;;;;;;5034644;28;20195;-85
2024/01/05 04:03:02;;;;;;;1.67;0.95;;;7.20;99.90;;;;;;5034765;28;20199;-85
2024/01/05 04:05:29;;;;;;;0.75;0.63;;;7.20;99.90;;;;;;5034359;28;20254;-85
2024/01/05 04:07:57;;;;;;;4.55;0.50;;;7.30;99.90;;;;;;5026957;28;20208;-83
2024/01/05 04:10:24;;;;;;;0.70;0.70;;;7.40;99.90;;;;;;5018653;28;20211;-84
2024/01/05 04:12:50;;;;;;;0.40;0.40;;;7.40;99.90;;;;;;5027409;28;20220;-84
2024/01/05 04:15:17;;;;;;;0.40;0.40;;;7.50;99.90;;;;;;5029807;28;20231;-85
2024/01/05 04:17:44;;;;;;;0.40;0.40;;;7.50;99.90;;;;;;5029445;28;20208;-85
2024/01/05 04:20:11;;;;;;;0.75;0.60;;;7.50;99.90;;;;;;5021282;28;20215;-86
2024/01/05 04:22:38;;;;;;;0.40;0.40;;;7.50;99.90;;;;;;5038417;28;20196;-85
2024/01/05 04:25:07;;;;;;;2.70;0.50;;;7.60;99.90;;;;;;5037535;28;20222;-84
2024/01/05 04:27:34;;;;;;;0.40;0.40;;;7.60;99.90;;;;;;5033931;28;20623;-85
2024/01/05 04:30:00;;;;;;;0.60;0.60;;;7.60;99.90;;;;;;5025973;28;20207;-83
2024/01/05 04:32:27;;;;;;;0.57;0.57;;;7.70;99.90;;;;;;5037753;28;20687;-86
2024/01/05 04:34:54;;;;;;;0.70;0.70;;;7.70;99.90;;;;;;5037200;28;20216;-86
2024/01/05 04:37:21;;;;;;;0.50;0.50;;;7.70;99.90;;;;;;5025975;28;20212;-85
2024/01/05 04:39:48;;;;;;;0.95;0.73;;;7.70;99.90;;;;;;5032252;28;20196;-86
2024/01/05 04:42:17;;;;;;;0.60;0.60;;;7.80;99.90;;;;;;5034997;28;20196;-85
2024/01/05 04:44:44;;;;;;;7.63;1.88;;;7.80;99.90;;;;;;5031866;28;20223;-85
2024/01/05 04:47:11;;;;;;;0.80;0.60;;;7.80;99.90;;;;;;5020795;28;20266;-85
2024/01/05 04:49:37;;;;;;;0.40;0.38;;;7.80;99.90;;;;;;5028716;28;20200;-86
2024/01/05 04:52:05;;;;;;;0.40;0.38;;;7.90;99.90;;;;;;5020363;28;20242;-84
2024/01/05 04:54:31;;;;;;;0.47;0.40;;;7.90;99.90;;;;;;5017675;28;20220;-86
2024/01/05 04:56:59;;;;;;;0.40;0.40;;;7.90;99.90;;;;;;5025983;28;20572;-84
2024/01/05 04:59:27;;;;;;;0.40;0.40;;;7.90;99.90;;;;;;5027862;28;20257;-85
2024/01/05 05:01:54;;;;;;;15.05;2.03;;;7.90;99.90;;;;;;5021709;28;20265;-85
2024/01/05 05:04:20;;;;;;;0.60;0.60;;;7.90;99.90;;;;;;5027330;28;20229;-84
2024/01/05 05:06:47;;;;;;;0.85;0.50;;;7.90;99.90;;;;;;5030030;28;20196;-85
2024/01/05 05:09:14;;;;;;;0.52;0.50;;;7.90;99.90;;;;;;5033016;28;20219;-84
2024/01/05 05:11:41;;;;;;;0.75;0.57;;;7.90;99.90;;;;;;5037616;28;20199;-84
2024/01/05 05:14:07;;;;;;;0.93;0.93;;;8.00;99.90;;;;;;5023785;28;20227;-83
2024/01/05 05:19:38;;;;;;;0.50;0.40;;;8.00;99.90;;;;;;4976187;28;20212;-82
2024/01/05 05:22:05;;;;;;;0.50;0.40;;;8.10;99.90;;;;;;4979367;28;20212;-85
2024/01/05 05:24:32;;;;;;;0.50;0.40;;;8.00;99.90;;;;;;4975893;28;20214;-86
2024/01/05 05:26:59;;;;;;;0.40;0.40;;;8.10;99.90;;;;;;4983815;28;20204;-84
2024/01/05 05:29:25;;;;;;;0.50;0.40;;;8.10;99.90;;;;;;4991117;28;20261;-84
2024/01/05 05:31:53;;;;;;;5.47;1.77;;;8.10;99.90;;;;;;4981765;28;20197;-83
2024/01/05 05:34:20;;;;;;;15.15;1.25;;;8.10;99.90;;;;;;4984390;28;20237;-83
2024/01/05 05:36:47;;;;;;;0.60;0.60;;;8.10;99.90;;;;;;4983345;28;20204;-83
2024/01/05 05:39:14;;;;;;;1.33;0.85;;;8.00;99.90;;;;;;4983059;28;20204;-82
2024/01/05 05:41:41;;;;;;;0.50;0.40;;;8.10;99.90;;;;;;4983391;28;20205;-83
2024/01/05 05:44:07;;;;;;;0.77;0.50;;;8.10;99.90;;;;;;4990666;28;20241;-83
2024/01/05 05:46:34;;;;;;;0.50;0.50;;;8.00;99.90;;;;;;4983579;28;20209;-82
2024/01/05 05:49:02;;;;;;;0.47;0.40;;;8.00;99.90;;;;;;4984331;28;20202;-83
2024/01/05 05:51:29;;;;;;;0.50;0.40;;;8.00;99.90;;;;;;5027495;28;20200;-84
2024/01/05 05:53:56;;;;;;;7.22;0.82;;;7.90;99.90;;;;;;5027245;28;20600;-81
2024/01/05 05:56:22;;;;;;;0.50;0.40;;;7.80;99.90;;;;;;5021378;28;20576;-84
2024/01/05 05:58:49;;;;;;;0.60;0.60;;;7.70;99.90;;;;;;5029714;28;20200;-83
2024/01/05 06:01:16;;;;;;;0.50;0.40;;;7.70;99.90;;;;;;5024138;28;20200;-82
2024/01/05 06:03:43;;;;;;;0.50;0.40;;;7.70;99.90;;;;;;5006899;28;20458;-83
2024/01/05 06:06:18;;;;;;;1.23;0.80;;;7.70;99.90;;;;;;5013015;28;20196;-83
2024/01/05 06:08:45;;;;;;;0.50;0.50;;;7.70;99.90;;;;;;5029101;28;20200;-84
2024/01/05 06:11:13;;;;;;;0.50;0.40;;;7.70;99.90;;;;;;5035216;28;20294;-82
2024/01/05 06:13:40;;;;;;;2.75;0.80;;;7.60;99.90;;;;;;5034652;28;20714;-83
2024/01/05 06:16:07;;;;;;;1.95;1.05;;;7.60;99.90;;;;;;5035144;28;20196;-84
2024/01/05 06:18:34;;;;;;;0.50;0.40;;;7.60;99.90;;;;;;5029699;28;20203;-85
2024/01/05 06:21:01;;;;;;;2.45;1.23;;;7.60;99.90;;;;;;5015559;28;20201;-84
2024/01/05 06:23:29;;;;;;;0.80;0.70;;;7.60;99.90;;;;;;5016905;28;20211;-84
2024/01/05 06:25:56;;;;;;;1.25;0.95;;;7.60;99.90;;;;;;5027715;28;20216;-83
2024/01/05 06:28:22;;;;;;;0.40;0.40;;;7.60;99.90;;;;;;5025924;28;20582;-84
2024/01/05 06:30:49;;;;;;;1.60;0.82;;;7.60;99.90;;;;;;5026095;28;20203;-82
2024/01/05 06:33:16;;;;;;;0.50;0.40;;;7.60;99.90;;;;;;5026254;28;20212;-84
2024/01/05 06:35:43;;;;;;;0.50;0.40;;;7.60;99.90;;;;;;5022575;28;20227;-83
2024/01/05 06:38:09;;;;;;;0.82;0.50;;;7.60;99.90;;;;;;5022686;28;20201;-84
2024/01/05 06:40:37;;;;;;;0.88;0.52;;;7.60;99.90;;;;;;5018019;28;20206;-84
2024/01/05 06:43:04;;;;;;;0.85;0.85;;;7.60;99.90;;;;;;5026196;28;20203;-84
2024/01/05 06:45:31;;;;;;;0.50;0.40;;;7.70;99.90;;;;;;5018148;28;20239;-84
2024/01/05 06:47:58;;;;;;;0.50;0.40;;;7.70;99.90;;;;;;5027155;28;20200;-84
2024/01/05 06:50:25;;;;;;;0.50;0.40;;;7.80;99.90;;;;;;5025903;28;20212;-84
2024/01/05 06:52:52;;;;;;;6.78;6.32;;;7.90;99.90;;;;;;5021572;28;20216;-84
2024/01/05 06:55:19;;;;;;;1.05;0.82;;;7.90;99.90;;;;;;5027083;28;20219;-85
2024/01/05 06:57:48;;;;;;;0.50;0.40;;;8.00;99.90;;;;;;5024184;28;20215;-83
2024/01/05 07:00:15;;;;;;;0.50;0.40;;;8.00;99.90;;;;;;5025206;28;20236;-80
2024/01/05 07:02:42;;;;;;;1.45;1.15;;;8.10;99.90;;;;;;5034306;28;20563;-83
2024/01/05 07:05:09;;;;;;;0.60;0.60;;;8.10;99.90;;;;;;5025130;28;20225;-84
2024/01/05 07:07:36;;;;;;;2.47;2.28;;;8.10;99.90;;;;;;5037295;28;20567;-83
2024/01/05 07:10:04;;;;;;;1.02;0.50;;;8.20;99.90;;;;;;5031576;28;20290;-83
2024/01/05 07:12:30;;;;;;;0.50;0.40;;;8.20;99.90;;;;;;5020927;28;20212;-83
2024/01/05 07:14:58;;;;;;;1.13;0.63;;;8.20;99.90;;;;;;5032877;28;20226;-84
2024/01/05 07:17:25;;;;;;;0.50;0.40;;;8.30;99.90;;;;;;5021821;28;20207;-84
2024/01/05 07:19:52;;;;;;;3.35;0.88;;;8.30;99.90;;;;;;5040221;28;20192;-83
2024/01/05 07:22:19;;;;;;;0.50;0.40;;;8.40;99.90;;;;;;5031810;28;20208;-83
2024/01/05 07:24:45;;;;;;;2.05;0.98;;;8.40;99.90;;;;;;5029686;28;20271;-83
2024/01/05 07:27:15;;;;;;;0.65;0.45;;;8.50;99.90;;;;;;5033872;28;20195;-84
2024/01/05 07:29:41;;;;;;;1.08;0.98;;;8.60;99.90;;;;;;5015016;28;20591;-85
2024/01/05 07:32:09;;;;;;;1.00;0.90;;;8.60;99.90;;;;;;5030756;28;20210;-85
2024/01/05 07:34:37;;;;;;;0.50;0.40;;;8.60;99.90;;;;;;5023203;28;20220;-85
2024/01/05 07:37:03;;;;;;;1.67;0.90;;;8.60;99.90;;;;;;5022822;28;20295;-85
2024/01/05 07:39:30;;;;;;;1.47;1.37;;;8.60;99.90;;;;;;5030291;28;20207;-85
2024/01/05 07:41:57;;;;;;;0.60;0.50;;;8.60;99.90;;;;;;5022987;28;20475;-85
2024/01/05 07:44:24;;;;;;;0.50;0.40;;;8.60;99.90;;;;;;5023933;28;20225;-85
2024/01/05 07:46:50;;;;;;;0.50;0.40;;;8.70;99.90;;;;;;5026262;28;20439;-85
2024/01/05 07:49:19;;;;;;;0.50;0.40;;;8.60;99.90;;;;;;5026216;28;20444;-85
2024/01/05 07:51:45;;;;;;;0.60;0.60;;;8.60;99.90;;;;;;5016336;28;20683;-84
2024/01/05 07:54:12;;;;;;;1.03;0.70;;;8.70;99.90;;;;;;5025970;28;20592;-85
2024/01/05 07:56:39;;;;;;;1.60;1.50;;;8.60;99.90;;;;;;5028754;28;20438;-84
2024/01/05 07:59:06;;;;;;;0.50;0.40;;;8.60;99.90;;;;;;5028978;28;20442;-84
2024/01/05 08:01:32;;;;;;;0.50;0.40;;;8.60;99.90;;;;;;5027204;28;20196;-84
2024/01/05 08:03:59;;;;;;;0.50;0.40;;;8.60;99.90;;;;;;5025651;28;20212;-84
2024/01/05 08:06:27;;;;;;;1.67;1.02;;;8.50;99.90;;;;;;5026435;28;20228;-85
2024/01/05 08:08:54;;;;;;;2.30;1.13;;;8.60;99.90;;;;;;5028838;28;20196;-85
2024/01/05 08:11:21;;;;;;;0.80;0.60;;;8.60;99.90;;;;;;5036213;28;20438;-82
2024/01/05 08:13:48;;;;;;;0.50;0.40;;;8.50;99.90;;;;;;5028839;28;20207;-84
2024/01/05 08:16:14;;;;;;;0.50;0.43;;;8.50;99.90;;;;;;5029541;28;20199;-85
2024/01/05 08:18:42;;;;;;;0.50;0.40;;;8.40;99.90;;;;;;5028792;28;20695;-84
2024/01/05 08:21:09;;;;;;;0.50;0.40;;;8.40;99.90;;;;;;5029073;28;20492;-84
2024/01/05 08:23:37;;;;;;;1.02;0.75;;;8.40;99.90;;;;;;5026833;28;20199;-84
2024/01/05 08:26:04;;;;;;;0.50;0.50;;;8.40;99.90;;;;;;5025274;28;20600;-84
2024/01/05 08:28:31;;;;;;;1.02;0.90;;;8.40;99.90;;;;;;5018069;28;20469;-83
2024/01/05 08:30:58;;;;;;;0.80;0.65;;;8.40;99.90;;;;;;5029399;28;20218;-84
2024/01/05 08:33:25;;;;;;;0.77;0.77;;;8.40;99.90;;;;;;5028504;28;20690;-86
2024/01/05 08:35:52;;;;;;;0.50;0.50;;;8.50;99.90;;;;;;5024578;28;20223;-85
2024/01/05 08:38:18;;;;;;;0.50;0.40;;;8.50;99.90;;;;;;5024822;28;20208;-85
2024/01/05 08:40:49;;;;;;;0.52;0.52;;;8.50;99.90;;;;;;5028280;28;20686;-84
2024/01/05 08:43:17;;;;;;;0.50;0.50;;;8.60;99.90;;;;;;5027861;28;20812;-85
2024/01/05 08:45:44;;;;;;;0.50;0.40;;;8.60;99.90;;;;;;5025152;28;20469;-84
2024/01/05 08:48:11;;;;;;;4.85;1.95;;;8.60;99.90;;;;;;5024423;28;20232;-84
2024/01/05 08:50:38;;;;;;;0.50;0.40;;;8.60;99.90;;;;;;5026095;28;20212;-84
2024/01/05 08:53:05;;;;;;;0.60;0.50;;;8.60;99.90;;;;;;5027583;28;20196;-84
2024/01/05 08:55:31;;;;;;;0.50;0.40;;;8.70;99.90;;;;;;5019171;28;20729;-84
2024/01/05 08:57:59;;;;;;;0.85;0.68;;;8.70;99.90;;;;;;5027233;28;20196;-84
2024/01/05 09:00:27;;;;;;;0.57;0.50;;;8.70;99.90;;;;;;5019036;28;20604;-84
2024/01/05 09:02:53;;;;;;;0.60;0.50;;;8.70;99.90;;;;;;5026720;28;20274;-84
2024/01/05 09:05:20;;;;;;;1.65;0.50;;;8.70;99.90;;;;;;5020277;28;20220;-84
2024/01/05 09:07:48;;;;;;;0.50;0.47;;;8.70;99.90;;;;;;5023605;28;20275;-82
2024/01/05 09:10:14;;;;;;;0.50;0.50;;;8.80;99.90;;;;;;5030588;28;20230;-84
2024/01/05 09:12:41;;;;;;;1.65;1.05;;;8.70;99.90;;;;;;5024883;28;20207;-83
2024/01/05 09:15:10;;;;;;;0.50;0.40;;;8.70;99.90;;;;;;5023450;28;20224;-84
2024/01/05 09:17:36;;;;;;;0.50;0.40;;;8.70;99.90;;;;;;5024718;28;20208;-84
2024/01/05 09:20:04;;;;;;;0.50;0.50;;;8.70;99.90;;;;;;5027104;28;20196;-84
2024/01/05 09:22:30;;;;;;;0.98;0.88;;;8.70;99.90;;;;;;5026473;28;20200;-84
2024/01/05 09:24:57;;;;;;;0.50;0.40;;;8.70;99.90;;;;;;5026680;28;20215;-84
2024/01/05 09:27:24;;;;;;;0.70;0.65;;;8.70;99.90;;;;;;5027187;28;20663;-84
2024/01/05 09:29:51;;;;;;;0.75;0.75;;;8.60;99.90;;;;;;5026018;28;20207;-83
2024/01/05 09:32:19;;;;;;;0.50;0.50;;;8.50;99.90;;;;;;5026990;28;20206;-84
2024/01/05 09:34:45;;;;;;;0.98;0.50;;;8.50;99.90;;;;;;5018267;28;20234;-84
2024/01/05 09:37:12;;;;;;;0.50;0.40;;;8.50;99.90;;;;;;5026410;28;20219;-84
2024/01/05 09:39:39;;;;;;;0.50;0.40;;;8.50;99.90;;;;;;5024525;28;20307;-84
2024/01/05 09:42:06;;;;;;;0.50;0.40;;;8.50;99.90;;;;;;5023120;28;20204;-84
2024/01/05 09:44:34;;;;;;;3.30;0.65;;;8.50;99.90;;;;;;5023129;28;20243;-81
2024/01/05 09:47:02;;;;;;;1.67;0.63;;;8.50;99.90;;;;;;5026538;28;20188;-84
2024/01/05 09:49:34;;;;;;;0.50;0.40;;;8.50;99.90;;;;;;5025959;28;20199;-81
2024/01/05 09:52:00;;;;;;;0.50;0.40;;;8.50;99.90;;;;;;5022736;28;20200;-84
2024/01/05 09:54:27;;;;;;;0.50;0.40;;;8.50;99.90;;;;;;5022927;28;20231;-83
2024/01/05 09:56:54;;;;;;;0.82;0.82;;;8.50;99.90;;;;;;5022706;28;20521;-83
2024/01/05 09:59:22;;;;;;;0.60;0.50;;;8.50;99.90;;;;;;5023450;28;20205;-83
2024/01/05 10:01:51;;;;;;;0.50;0.40;;;8.40;99.90;;;;;;5022594;28;20196;-80
2024/01/05 10:04:19;;;;;;;0.70;0.63;;;8.40;99.90;;;;;;5022672;28;20220;-83
2024/01/05 10:06:47;;;;;;;0.50;0.40;;;8.40;99.90;;;;;;5016396;28;20263;-83
2024/01/05 10:09:13;;;;;;;0.50;0.50;;;8.40;99.90;;;;;;5025829;28;20574;-83
2024/01/05 10:11:42;;;;;;;0.50;0.50;;;8.40;99.90;;;;;;5024091;28;20195;-83
2024/01/05 10:14:11;;;;;;;0.70;0.70;;;8.40;99.90;;;;;;5021567;28;20234;-83
2024/01/05 10:16:39;;;;;;;0.77;0.50;;;8.30;99.90;;;;;;5023337;28;20454;-83
2024/01/05 10:19:13;;;;;;;0.50;0.40;;;8.30;99.90;;;;;;5025826;28;20647;-83
2024/01/05 10:21:40;;;;;;;0.55;0.55;;;8.30;99.90;;;;;;5024971;28;20203;-84
2024/01/05 10:24:16;;;;;;;0.50;0.50;;;8.30;99.90;;;;;;5022477;28;20213;-84
2024/01/05 10:26:43;;;;;;;0.50;0.40;;;8.30;99.90;;;;;;5023838;28;20722;-81
2024/01/05 10:29:13;;;;;;;0.50;0.43;;;8.30;99.90;;;;;;5025961;28;20202;-84
2024/01/05 10:31:40;;;;;;;0.60;0.60;;;8.40;99.90;;;;;;5024290;28;20286;-84
2024/01/05 10:34:09;;;;;;;0.50;0.50;;;8.30;99.90;;;;;;5026530;28;20769;-84
2024/01/05 10:36:35;;;;;;;0.50;0.40;;;8.30;99.90;;;;;;5017071;28;20208;-83
2024/01/05 10:39:04;;;;;;;0.50;0.40;;;8.30;99.90;;;;;;5025744;28;20204;-84
2024/01/05 10:41:32;;;;;;;0.50;0.40;;;8.30;99.90;;;;;;5033495;28;20207;-84
2024/01/05 10:43:59;;;;;;;0.50;0.40;;;8.30;99.90;;;;;;5021643;28;20220;-84
2024/01/05 10:46:26;;;;;;;3.83;0.50;;;8.30;99.90;;;;;;5022275;28;20200;-83
2024/01/05 10:48:55;;;;;;;0.50;0.40;;;8.30;99.90;;;;;;5021869;28;20209;-84
2024/01/05 10:51:23;;;;;;;0.50;0.50;;;8.20;99.90;;;;;;5021695;28;20207;-84
2024/01/05 10:53:50;;;;;;;1.30;0.60;;;8.20;99.90;;;;;;5024110;28;20207;-84
2024/01/05 10:56:20;;;;;;;0.98;0.75;;;8.10;99.90;;;;;;5027923;28;20196;-84
2024/01/05 10:58:50;;;;;;;0.50;0.50;;;8.10;99.90;;;;;;5021864;28;20200;-82
2024/01/05 11:01:19;;;;;;;0.50;0.40;;;8.10;99.90;;;;;;5022268;28;20212;-83
2024/01/05 11:03:50;;;;;;;0.80;0.80;;;8.10;99.90;;;;;;5030048;28;20258;-84
2024/01/05 11:06:18;;;;;;;0.50;0.50;;;8.10;99.90;;;;;;5021751;28;20197;-83
2024/01/05 11:08:58;;;;;;;0.50;0.40;;;8.20;99.90;;;;;;5021674;28;20200;-80
2024/01/05 11:11:35;;;;;;;2.80;1.67;;;8.20;99.90;;;;;;5023092;28;20230;-84
2024/01/05 11:14:17;;;;;;;1.02;0.95;;;8.20;99.90;;;;;;5016585;28;20222;-84
2024/01/05 11:17:23;;;;;;;0.50;0.40;;;8.20;99.90;;;;;;5024206;28;20204;-84
2024/01/05 11:20:25;;;;;;;0.50;0.40;;;8.10;99.90;;;;;;4996323;28;20206;-83
2024/01/05 11:22:52;;;;;;;0.50;0.50;;;8.00;99.90;;;;;;5019220;28;20203;-79
2024/01/05 11:25:20;;;;;;;0.70;0.60;;;8.00;99.90;;;;;;5023045;28;20231;-84
2024/01/05 11:27:47;;;;;;;0.57;0.50;;;7.90;99.90;;;;;;5033785;28;20195;-84
2024/01/05 11:30:35;;;;;;;0.60;0.50;;;7.80;99.90;;;;;;5025940;28;20254;-84
2024/01/05 11:33:02;;;;;;;7.13;2.05;;;7.70;99.90;;;;;;5034122;28;20208;-83
2024/01/05 11:35:42;;;;;;;0.52;0.47;;;7.60;99.90;;;;;;5024821;28;20230;-84
2024/01/05 11:38:27;;;;;;;0.50;0.40;;;7.50;99.90;;;;;;5019275;28;20736;-83
2024/01/05 11:40:53;;;;;;;0.60;0.50;;;7.40;99.90;;;;;;5025656;28;20207;-84
2024/01/05 11:43:38;;;;;;;0.50;0.50;;;7.40;99.90;;;;;;5025699;28;20197;-84
2024/01/05 11:46:07;;;;;;;0.50;0.50;;;7.40;99.90;;;;;;5016971;28;20231;-83
2024/01/05 11:48:47;;;;;;;3.70;0.80;;;7.40;99.90;;;;;;5024629;28;20200;-83
2024/01/05 11:51:14;;;;;;;0.80;0.60;;;7.40;99.90;;;;;;5018791;28;20283;-84
2024/01/05 11:53:41;;;;;;;4.43;1.52;;;7.30;99.90;;;;;;5027168;28;20204;-81
2024/01/05 11:56:10;;;;;;;0.80;0.50;;;7.30;99.90;;;;;;5032344;28;20219;-83
2024/01/05 11:58:38;;;;;;;0.50;0.40;;;7.30;99.90;;;;;;5031515;28;20195;-85
2024/01/05 12:01:09;;;;;;;0.50;0.40;;;7.30;99.90;;;;;;5028681;28;20295;-83
2024/01/05 12:03:38;;;;;;;0.60;0.60;;;7.30;99.90;;;;;;5028326;28;20579;-84
2024/01/05 12:06:05;;;;;;;0.65;0.60;;;7.30;99.90;;;;;;5028725;28;20200;-84
2024/01/05 12:08:33;;;;;;;0.60;0.60;;;7.30;99.90;;;;;;5028691;28;20203;-84
2024/01/05 12:11:03;;;;;;;0.50;0.40;;;7.20;99.90;;;;;;5029156;28;20211;-84
2024/01/05 12:13:32;;;;;;;0.50;0.40;;;7.20;99.90;;;;;;5028906;28;20231;-84
2024/01/05 12:16:01;;;;;;;1.13;0.82;;;7.20;99.90;;;;;;5026719;28;20227;-85
2024/01/05 12:18:30;;;;;;;0.60;0.60;;;7.10;99.90;;;;;;5025645;28;20270;-84
2024/01/05 12:20:58;;;;;;;0.60;0.60;;;7.00;99.90;;;;;;5028550;28;20201;-84
2024/01/05 12:23:25;;;;;;;1.00;0.60;;;7.00;99.90;;;;;;5028976;28;20200;-85
2024/01/05 12:26:00;;;;;;;0.75;0.52;;;7.10;99.90;;;;;;5029189;28;20212;-84
2024/01/05 12:28:27;;;;;;;1.00;1.00;;;7.10;99.90;;;;;;5022461;28;20250;-85
2024/01/05 12:30:55;;;;;;;0.50;0.50;;;7.20;99.90;;;;;;5033065;28;20199;-85
2024/01/05 12:33:23;;;;;;;0.75;0.75;;;7.20;99.90;;;;;;5024750;28;20207;-84
2024/01/05 12:35:52;;;;;;;1.27;1.05;;;7.30;99.90;;;;;;5025720;28;20295;-85
2024/01/05 12:38:23;;;;;;;0.50;0.40;;;7.30;99.90;;;;;;5028248;28;20282;-85
2024/01/05 12:40:50;;;;;;;0.50;0.50;;;7.30;99.90;;;;;;5028524;28;20287;-85
2024/01/05 12:43:18;;;;;;;0.80;0.80;;;7.30;99.90;;;;;;5029735;28;20222;-85
2024/01/05 12:45:48;;;;;;;0.60;0.50;;;7.20;99.90;;;;;;5029013;28;20568;-81
2024/01/05 12:48:16;;;;;;;0.50;0.50;;;7.10;99.90;;;;;;5017554;28;20615;-85
2024/01/05 12:50:42;;;;;;;3.60;0.75;;;7.10;99.90;;;;;;5025546;28;20469;-85
2024/01/05 12:53:24;;;;;;;0.50;0.50;;;7.00;99.90;;;;;;5028892;28;20192;-85
2024/01/05 12:55:50;;;;;;;0.60;0.50;;;7.00;99.90;;;;;;5020135;28;20223;-85
2024/01/05 12:58:18;;;;;;;3.33;0.60;;;6.90;99.90;;;;;;5024672;28;20207;-85
2024/01/05 13:00:44;;;;;;;0.50;0.50;;;6.80;99.90;;;;;;5025246;28;20243;-85
2024/01/05 13:03:16;;;;;;;0.50;0.50;;;6.80;99.90;;;;;;5024775;28;20243;-85